createdAt,value
2022-10-17T00:03:43.932Z,17.88
2022-10-17T00:08:46.281Z,16.52
2022-10-17T00:13:50.163Z,17.08
2022-10-17T00:18:52.574Z,16.50
2022-10-17T00:23:55.205Z,18.15
2022-10-17T00:28:57.665Z,16.83
2022-10-17T00:34:00.007Z,18.40
2022-10-17T00:39:04.464Z,18.00
2022-10-17T00:44:28.491Z,19.05
2022-10-17T00:49:34.342Z,18.98
2022-10-17T00:54:40.566Z,19.38
2022-10-17T00:59:43.621Z,16.92
2022-10-17T01:04:48.429Z,16.13
2022-10-17T01:09:50.832Z,17.38
2022-10-17T01:14:58.982Z,16.60
2022-10-17T01:20:22.976Z,16.27
2022-10-17T01:25:29.761Z,17.63
2022-10-17T01:30:50.798Z,18.08
2022-10-17T01:36:06.694Z,19.80
2022-10-17T01:41:18.095Z,20.27
2022-10-17T01:46:28.252Z,20.77
2022-10-17T01:51:38.847Z,18.40
2022-10-17T01:56:42.167Z,16.52
2022-10-17T02:01:47.228Z,17.40
2022-10-17T02:06:49.587Z,18.38
2022-10-17T02:12:22.955Z,21.30
2022-10-17T02:17:47.498Z,20.88
2022-10-17T02:22:52.166Z,20.88
2022-10-17T02:28:03.685Z,18.42
2022-10-17T02:33:10.618Z,15.98
2022-10-17T02:38:13.727Z,13.33
2022-10-17T02:43:18.284Z,19.25
2022-10-17T02:48:42.536Z,16.98
2022-10-17T02:54:03.150Z,18.80
2022-10-17T02:59:08.010Z,28.92
2022-10-17T03:04:13.867Z,32.38
2022-10-17T03:14:20.397Z,27.55
2022-10-17T03:19:22.892Z,23.60
2022-10-17T03:24:26.884Z,19.55
2022-10-17T03:29:29.576Z,18.60
2022-10-17T03:34:32.239Z,18.00
2022-10-17T03:39:34.618Z,17.00
2022-10-17T03:44:36.987Z,16.77
2022-10-17T03:49:40.193Z,16.98
2022-10-17T03:54:42.556Z,18.48
2022-10-17T03:59:44.971Z,18.45
2022-10-17T04:04:51.927Z,16.95
2022-10-17T04:09:54.441Z,21.35
2022-10-17T04:14:57.910Z,23.48
2022-10-17T04:20:01.275Z,22.67
2022-10-17T04:25:04.521Z,20.88
2022-10-17T04:30:13.412Z,24.17
2022-10-17T04:35:16.626Z,22.20
2022-10-17T04:40:23.559Z,20.35
2022-10-17T04:45:27.954Z,25.95
2022-10-17T04:50:34.059Z,18.05
2022-10-17T04:56:01.659Z,17.80
2022-10-17T05:01:13.479Z,24.42
2022-10-17T05:06:20.576Z,18.65
2022-10-17T05:11:38.099Z,21.50
2022-10-17T05:16:40.806Z,18.10
2022-10-17T05:21:43.673Z,22.05
2022-10-17T05:26:45.986Z,22.13
2022-10-17T05:31:48.405Z,27.20
2022-10-17T05:36:50.681Z,23.50
2022-10-17T05:41:56.412Z,31.45
2022-10-17T05:46:59.273Z,37.33
2022-10-17T05:52:02.911Z,41.00
2022-10-17T05:57:10.895Z,27.17
2022-10-17T06:02:15.389Z,27.77
2022-10-17T06:07:18.051Z,37.80
2022-10-17T06:12:20.956Z,77.38
2022-10-17T06:17:24.045Z,57.08
2022-10-17T06:22:26.609Z,29.77
2022-10-17T06:27:29.176Z,31.77
2022-10-17T06:32:32.468Z,53.10
2022-10-17T06:37:37.122Z,38.55
2022-10-17T06:42:44.302Z,28.60
2022-10-17T06:48:00.567Z,24.83
2022-10-17T06:53:16.719Z,32.83
2022-10-17T06:58:43.366Z,30.40
2022-10-17T07:04:21.015Z,29.33
2022-10-17T07:09:25.139Z,30.17
2022-10-17T07:14:32.163Z,28.35
2022-10-17T07:19:35.282Z,32.40
2022-10-17T07:24:38.309Z,28.95
2022-10-17T07:30:02.752Z,31.58
2022-10-17T07:35:12.151Z,27.67
2022-10-17T07:40:15.858Z,30.95
2022-10-17T07:45:19.226Z,27.67
2022-10-17T07:50:22.624Z,27.95
2022-10-17T07:55:24.927Z,23.73
2022-10-17T08:00:27.988Z,25.33
2022-10-17T08:05:31.246Z,25.42
2022-10-17T08:10:33.614Z,28.55
2022-10-17T08:15:39.004Z,25.85
2022-10-17T08:20:42.397Z,24.48
2022-10-17T08:25:44.686Z,22.80
2022-10-17T08:30:46.997Z,26.48
2022-10-17T08:35:49.304Z,24.75
2022-10-17T08:40:51.627Z,25.08
2022-10-17T08:46:03.276Z,22.88
2022-10-17T08:51:34.874Z,22.10
2022-10-17T08:56:49.180Z,20.17
2022-10-17T09:02:20.133Z,24.08
2022-10-17T09:07:32.579Z,20.13
2022-10-17T09:12:44.737Z,16.83
2022-10-17T09:17:56.917Z,14.45
2022-10-17T09:23:05.938Z,12.55
2022-10-17T09:28:28.808Z,11.50
2022-10-17T09:33:53.264Z,10.07
2022-10-17T09:38:58.319Z,9.68
2022-10-17T09:44:14.654Z,10.15
2022-10-17T09:49:20.391Z,11.48
2022-10-17T09:54:27.442Z,10.48
2022-10-17T09:59:40.677Z,9.98
2022-10-17T10:05:06.414Z,11.80
2022-10-17T10:10:27.614Z,11.55
2022-10-17T10:15:34.124Z,12.63
2022-10-17T10:20:38.111Z,14.98
2022-10-17T10:25:50.827Z,13.40
2022-10-17T10:30:53.699Z,13.30
2022-10-17T10:36:02.195Z,11.65
2022-10-17T10:41:07.860Z,9.65
2022-10-17T10:46:20.630Z,12.05
2022-10-17T10:51:26.072Z,10.68
2022-10-17T10:56:55.246Z,12.70
2022-10-17T11:02:11.569Z,12.40
2022-10-17T11:07:19.466Z,12.02
2022-10-17T11:12:26.940Z,12.27
2022-10-17T11:22:42.052Z,11.90
2022-10-17T11:27:44.413Z,12.93
2022-10-17T11:32:54.232Z,13.20
2022-10-17T11:38:22.735Z,14.50
2022-10-17T11:43:46.175Z,16.33
2022-10-17T11:49:20.150Z,13.63
2022-10-17T11:54:32.066Z,15.73
2022-10-17T11:59:34.256Z,15.50
2022-10-17T12:05:02.373Z,15.15
2022-10-17T12:10:46.685Z,14.82
2022-10-17T12:15:48.934Z,16.58
2022-10-17T12:20:58.861Z,15.20
2022-10-17T12:26:06.632Z,16.52
2022-10-17T12:31:23.217Z,17.10
2022-10-17T12:36:28.372Z,16.88
2022-10-17T12:41:39.662Z,15.80
2022-10-17T12:46:52.923Z,17.33
2022-10-17T12:52:07.464Z,17.92
2022-10-17T12:57:22.873Z,18.65
2022-10-17T13:02:28.151Z,16.75
2022-10-17T13:07:31.045Z,19.02
2022-10-17T13:12:40.289Z,19.23
2022-10-17T13:17:43.988Z,18.98
2022-10-17T13:22:46.360Z,17.75
2022-10-17T13:27:49.515Z,17.40
2022-10-17T13:32:52.099Z,17.30
2022-10-17T13:37:55.990Z,17.55
2022-10-17T13:43:02.133Z,18.02
2022-10-17T13:48:16.766Z,17.50
2022-10-17T13:53:26.535Z,17.02
2022-10-17T13:58:49.820Z,16.77
2022-10-17T14:04:07.238Z,18.27
2022-10-17T14:09:27.007Z,17.17
2022-10-17T14:14:32.124Z,16.77
2022-10-17T14:19:40.046Z,19.95
2022-10-17T14:24:43.637Z,17.80
2022-10-17T14:29:53.574Z,21.23
2022-10-17T14:35:05.573Z,20.13
2022-10-17T14:40:24.873Z,19.67
2022-10-17T14:45:33.962Z,19.88
2022-10-17T14:50:36.701Z,19.10
2022-10-17T14:55:41.150Z,19.65
2022-10-17T15:00:43.501Z,20.83
2022-10-17T15:05:46.849Z,22.75
2022-10-17T15:10:49.906Z,21.50
2022-10-17T15:15:52.676Z,21.42
2022-10-17T15:21:04.631Z,20.33
2022-10-17T15:26:38.125Z,21.92
2022-10-17T15:31:40.887Z,21.70
2022-10-17T15:36:49.909Z,20.35
2022-10-17T15:41:52.209Z,21.38
2022-10-17T15:46:54.881Z,19.25
2022-10-17T15:51:57.149Z,19.75
2022-10-17T15:56:59.471Z,20.10
2022-10-17T16:02:01.778Z,21.13
2022-10-17T16:07:04.284Z,21.90
2022-10-17T16:12:11.733Z,23.70
2022-10-17T16:22:28.712Z,22.42
2022-10-17T16:27:31.315Z,21.67
2022-10-17T16:32:34.137Z,22.88
2022-10-17T16:37:36.588Z,21.80
2022-10-17T16:42:39.155Z,21.90
2022-10-17T16:47:41.481Z,24.15
2022-10-17T16:52:43.980Z,23.15
2022-10-17T16:57:48.957Z,22.45
2022-10-17T17:02:51.718Z,23.05
2022-10-17T17:07:55.838Z,22.48
2022-10-17T17:12:58.350Z,25.40
2022-10-17T17:18:05.358Z,23.92
2022-10-17T17:28:18.377Z,26.67
2022-10-17T17:33:20.818Z,25.35
2022-10-17T17:38:23.330Z,28.67
2022-10-17T17:43:25.986Z,23.77
2022-10-17T17:48:28.391Z,24.90
2022-10-17T17:53:30.832Z,31.08
2022-10-17T17:58:33.650Z,24.52
2022-10-17T18:03:35.898Z,29.45
2022-10-17T18:08:38.523Z,26.30
2022-10-17T18:13:40.895Z,25.70
2022-10-17T18:18:45.460Z,26.08
2022-10-17T18:23:48.994Z,33.35
2022-10-17T18:28:51.540Z,25.60
2022-10-17T18:33:55.724Z,29.35
2022-10-17T18:38:59.766Z,26.70
2022-10-17T18:44:05.652Z,30.65
2022-10-17T18:49:19.770Z,31.27
2022-10-17T18:54:22.554Z,24.92
2022-10-17T18:59:24.824Z,32.85
2022-10-17T19:04:27.209Z,33.33
2022-10-17T19:09:29.633Z,24.40
2022-10-17T19:14:31.921Z,24.58
2022-10-17T19:19:34.702Z,24.75
2022-10-17T19:24:37.000Z,26.50
2022-10-17T19:29:43.581Z,24.85
2022-10-17T19:34:45.926Z,24.77
2022-10-17T19:39:49.620Z,26.67
2022-10-17T19:44:51.882Z,26.40
2022-10-17T19:49:54.299Z,26.65
2022-10-17T19:54:56.654Z,27.80
2022-10-17T19:59:58.927Z,26.17
2022-10-17T20:05:17.652Z,25.83
2022-10-17T20:10:20.751Z,24.70
2022-10-17T20:15:23.105Z,24.30
2022-10-17T20:20:25.613Z,25.05
2022-10-17T20:25:27.954Z,24.42
2022-10-17T20:30:30.290Z,25.85
2022-10-17T20:35:32.582Z,36.67
2022-10-17T20:40:35.754Z,26.50
2022-10-17T20:45:51.442Z,28.33
2022-10-17T20:50:54.522Z,26.67
2022-10-17T20:56:21.854Z,26.70
2022-10-17T21:01:25.285Z,19.20
2022-10-17T21:06:27.760Z,25.58
2022-10-17T21:11:30.753Z,26.33
2022-10-17T21:16:35.550Z,26.95
2022-10-17T21:21:39.430Z,27.02
2022-10-17T21:26:43.405Z,27.65
2022-10-17T21:31:45.790Z,27.45
2022-10-17T21:36:48.691Z,25.33
2022-10-17T21:41:51.685Z,26.45
2022-10-17T21:46:55.154Z,28.67
2022-10-17T21:51:58.002Z,28.70
2022-10-17T21:57:00.282Z,31.63
2022-10-17T22:02:02.598Z,27.88
2022-10-17T22:07:05.168Z,29.60
2022-10-17T22:12:07.541Z,29.02
2022-10-17T22:17:09.895Z,31.10
2022-10-17T22:22:12.354Z,27.42
2022-10-17T22:27:14.942Z,28.95
2022-10-17T22:32:20.119Z,27.65
2022-10-17T22:37:24.851Z,29.20
2022-10-17T22:42:31.515Z,31.45
2022-10-17T22:47:34.050Z,23.83
2022-10-17T22:52:36.322Z,27.35
2022-10-17T22:57:38.784Z,29.92
2022-10-17T23:02:41.040Z,30.10
2022-10-17T23:07:43.360Z,28.77
2022-10-17T23:12:45.727Z,27.85
2022-10-17T23:17:48.006Z,27.85
2022-10-17T23:22:50.334Z,29.55
2022-10-17T23:27:52.706Z,27.88
2022-10-17T23:32:55.055Z,28.90
2022-10-17T23:37:57.357Z,29.13
2022-10-17T23:42:59.731Z,27.83
2022-10-17T23:48:02.434Z,29.25
2022-10-17T23:53:04.771Z,28.75
2022-10-17T23:58:07.160Z,29.33
